sensor_id;sensor_type;location;lat;lon;timestamp;pressure;altitude;pressure_sealevel;temperature;humidity
45253;BME280;63171;50.520;30.486;2023-02-13T00:00:10;101415.28;;;-1.55;60.47
45253;BME280;63171;50.520;30.486;2023-02-13T00:01:02;101417.88;;;-1.52;60.24
45253;BME280;63171;50.520;30.486;2023-02-13T00:01:53;101414.31;;;-1.61;60.39
45253;BME280;63171;50.520;30.486;2023-02-13T00:02:44;101416.13;;;-1.54;60.59
45253;BME280;63171;50.520;30.486;2023-02-13T00:03:34;101414.44;;;-1.52;60.47
45253;BME280;63171;50.520;30.486;2023-02-13T00:04:24;101415.28;;;-1.53;60.43
45253;BME280;63171;50.520;30.486;2023-02-13T00:05:15;101422.13;;;-1.54;60.63
45253;BME280;63171;50.520;30.486;2023-02-13T00:06:05;101415.28;;;-1.55;60.79
45253;BME280;63171;50.520;30.486;2023-02-13T00:06:56;101423.81;;;-1.57;60.62
45253;BME280;63171;50.520;30.486;2023-02-13T00:07:46;101413.50;;;-1.59;60.85
45253;BME280;63171;50.520;30.486;2023-02-13T00:08:36;101416.16;;;-1.50;60.97
45253;BME280;63171;50.520;30.486;2023-02-13T00:09:26;101413.63;;;-1.48;61.11
45253;BME280;63171;50.520;30.486;2023-02-13T00:10:17;101410.97;;;-1.56;60.90
45253;BME280;63171;50.520;30.486;2023-02-13T00:11:06;101411.81;;;-1.58;61.18
45253;BME280;63171;50.520;30.486;2023-02-13T00:11:57;101415.28;;;-1.52;61.04
45253;BME280;63171;50.520;30.486;2023-02-13T00:12:47;101414.44;;;-1.51;61.06
45253;BME280;63171;50.520;30.486;2023-02-13T00:13:38;101409.28;;;-1.55;61.44
45253;BME280;63171;50.520;30.486;2023-02-13T00:14:27;101407.56;;;-1.55;60.84
45253;BME280;63171;50.520;30.486;2023-02-13T00:15:18;101409.00;;;-1.76;60.98
45253;BME280;63171;50.520;30.486;2023-02-13T00:16:08;101409.09;;;-1.70;60.82
45253;BME280;63171;50.520;30.486;2023-02-13T00:16:59;101409.16;;;-1.63;60.89
45253;BME280;63171;50.520;30.486;2023-02-13T00:17:50;101409.16;;;-1.63;61.47
45253;BME280;63171;50.520;30.486;2023-02-13T00:18:40;101408.28;;;-1.65;60.96
45253;BME280;63171;50.520;30.486;2023-02-13T00:19:31;101404.19;;;-1.49;61.46
45253;BME280;63171;50.520;30.486;2023-02-13T00:20:21;101408.41;;;-1.56;61.46
45253;BME280;63171;50.520;30.486;2023-02-13T00:21:12;101407.53;;;-1.58;61.42
45253;BME280;63171;50.520;30.486;2023-02-13T00:22:02;101405.75;;;-1.62;61.42
45253;BME280;63171;50.520;30.486;2023-02-13T00:22:52;101401.41;;;-1.69;61.44
45253;BME280;63171;50.520;30.486;2023-02-13T00:23:42;101398.84;;;-1.66;61.38
45253;BME280;63171;50.520;30.486;2023-02-13T00:24:33;101396.28;;;-1.67;61.40
45253;BME280;63171;50.520;30.486;2023-02-13T00:25:23;101392.91;;;-1.62;61.60
45253;BME280;63171;50.520;30.486;2023-02-13T00:26:15;101395.41;;;-1.68;61.41
45253;BME280;63171;50.520;30.486;2023-02-13T00:27:07;101398.84;;;-1.66;61.77
45253;BME280;63171;50.520;30.486;2023-02-13T00:27:57;101397.94;;;-1.72;61.83
45253;BME280;63171;50.520;30.486;2023-02-13T00:28:47;101403.84;;;-1.78;61.75
45253;BME280;63171;50.520;30.486;2023-02-13T00:29:37;101391.09;;;-1.72;61.58
45253;BME280;63171;50.520;30.486;2023-02-13T00:30:27;101402.13;;;-1.79;61.58
45253;BME280;63171;50.520;30.486;2023-02-13T00:31:20;101389.31;;;-1.76;61.75
45253;BME280;63171;50.520;30.486;2023-02-13T00:32:10;101390.91;;;-1.86;61.74
45253;BME280;63171;50.520;30.486;2023-02-13T00:33:01;101392.53;;;-1.92;61.90
45253;BME280;63171;50.520;30.486;2023-02-13T00:33:52;101389.16;;;-1.88;61.85
45253;BME280;63171;50.520;30.486;2023-02-13T00:34:42;101385.88;;;-1.78;62.20
45253;BME280;63171;50.520;30.486;2023-02-13T00:35:33;101392.72;;;-1.79;62.06
45253;BME280;63171;50.520;30.486;2023-02-13T00:36:23;101391.81;;;-1.82;62.17
45253;BME280;63171;50.520;30.486;2023-02-13T00:37:14;101384.09;;;-1.85;61.90
45253;BME280;63171;50.520;30.486;2023-02-13T00:38:03;101391.84;;;-1.79;62.14
45253;BME280;63171;50.520;30.486;2023-02-13T00:38:53;101388.56;;;-1.67;62.37
45253;BME280;63171;50.520;30.486;2023-02-13T00:39:44;101384.28;;;-1.68;62.16
45253;BME280;63171;50.520;30.486;2023-02-13T00:40:34;101379.97;;;-1.72;62.34
45253;BME280;63171;50.520;30.486;2023-02-13T00:41:25;101380.84;;;-1.70;62.51
45253;BME280;63171;50.520;30.486;2023-02-13T00:42:14;101379.09;;;-1.73;62.19
45253;BME280;63171;50.520;30.486;2023-02-13T00:43:07;101385.09;;;-1.72;62.57
45253;BME280;63171;50.520;30.486;2023-02-13T00:43:58;101377.28;;;-1.80;62.45
45253;BME280;63171;50.520;30.486;2023-02-13T00:44:49;101385.81;;;-1.83;62.56
45253;BME280;63171;50.520;30.486;2023-02-13T00:45:39;101380.81;;;-1.73;62.54
45253;BME280;63171;50.520;30.486;2023-02-13T00:46:29;101378.16;;;-1.80;62.53
45253;BME280;63171;50.520;30.486;2023-02-13T00:47:19;101390.06;;;-1.86;62.40
45253;BME280;63171;50.520;30.486;2023-02-13T00:48:11;101380.56;;;-1.92;62.21
45253;BME280;63171;50.520;30.486;2023-02-13T00:49:01;101379.03;;;-1.77;62.96
45253;BME280;63171;50.520;30.486;2023-02-13T00:49:52;101373.00;;;-1.81;62.69
45253;BME280;63171;50.520;30.486;2023-02-13T00:50:42;101367.00;;;-1.80;62.49
45253;BME280;63171;50.520;30.486;2023-02-13T00:51:32;101373.00;;;-1.81;62.64
45253;BME280;63171;50.520;30.486;2023-02-13T00:52:22;101371.28;;;-1.82;62.67
45253;BME280;63171;50.520;30.486;2023-02-13T00:53:13;101377.06;;;-1.98;62.64
45253;BME280;63171;50.520;30.486;2023-02-13T00:54:02;101370.94;;;-2.06;62.74
45253;BME280;63171;50.520;30.486;2023-02-13T00:54:53;101372.53;;;-2.15;62.69
45253;BME280;63171;50.520;30.486;2023-02-13T00:55:43;101370.03;;;-2.12;62.65
45253;BME280;63171;50.520;30.486;2023-02-13T00:56:34;101370.03;;;-2.12;62.91
45253;BME280;63171;50.520;30.486;2023-02-13T00:57:23;101370.97;;;-2.05;63.00
45253;BME280;63171;50.520;30.486;2023-02-13T00:58:14;101367.69;;;-1.93;63.01
45253;BME280;63171;50.520;30.486;2023-02-13T00:59:04;101365.13;;;-1.95;63.03
45253;BME280;63171;50.520;30.486;2023-02-13T00:59:55;101362.47;;;-2.01;62.75
45253;BME280;63171;50.520;30.486;2023-02-13T01:02:37;101359.94;;;-1.98;63.35
45253;BME280;63171;50.520;30.486;2023-02-13T01:03:29;101356.69;;;-1.86;63.55
45253;BME280;63171;50.520;30.486;2023-02-13T01:04:19;101358.31;;;-1.90;63.49
45253;BME280;63171;50.520;30.486;2023-02-13T01:05:10;101368.50;;;-1.99;63.11
45253;BME280;63171;50.520;30.486;2023-02-13T01:06:00;101360.84;;;-1.96;63.58
45253;BME280;63171;50.520;30.486;2023-02-13T01:06:50;101359.13;;;-1.94;63.39
45253;BME280;63171;50.520;30.486;2023-02-13T01:07:40;101367.63;;;-1.99;63.41
45253;BME280;63171;50.520;30.486;2023-02-13T01:08:31;101362.56;;;-1.93;63.64
45253;BME280;63171;50.520;30.486;2023-02-13T01:09:21;101356.47;;;-2.01;63.64
45253;BME280;63171;50.520;30.486;2023-02-13T01:10:12;101358.34;;;-1.88;63.89
45253;BME280;63171;50.520;30.486;2023-02-13T01:11:02;101361.75;;;-1.88;63.50
45253;BME280;63171;50.520;30.486;2023-02-13T01:11:53;101354.06;;;-1.89;63.83
45253;BME280;63171;50.520;30.486;2023-02-13T01:12:43;101354.06;;;-1.89;63.78
45253;BME280;63171;50.520;30.486;2023-02-13T01:13:33;101343.69;;;-1.98;63.64
45253;BME280;63171;50.520;30.486;2023-02-13T01:14:23;101354.84;;;-1.96;63.83
45253;BME280;63171;50.520;30.486;2023-02-13T01:15:14;101351.44;;;-1.94;64.08
45253;BME280;63171;50.520;30.486;2023-02-13T01:16:04;101353.16;;;-1.93;64.21
45253;BME280;63171;50.520;30.486;2023-02-13T01:16:55;101348.88;;;-1.92;63.87
45253;BME280;63171;50.520;30.486;2023-02-13T01:17:45;101351.41;;;-1.95;63.85
45253;BME280;63171;50.520;30.486;2023-02-13T01:18:37;101351.38;;;-2.00;63.93
45253;BME280;63171;50.520;30.486;2023-02-13T01:19:27;101356.38;;;-2.09;64.01
45253;BME280;63171;50.520;30.486;2023-02-13T01:20:18;101345.31;;;-2.05;64.00
45253;BME280;63171;50.520;30.486;2023-02-13T01:21:15;101340.19;;;-2.03;64.11
45253;BME280;63171;50.520;30.486;2023-02-13T01:22:07;101348.72;;;-2.04;64.21
45253;BME280;63171;50.520;30.486;2023-02-13T01:22:57;101348.00;;;-1.94;64.07
45253;BME280;63171;50.520;30.486;2023-02-13T01:23:48;101344.56;;;-1.96;64.11
45253;BME280;63171;50.520;30.486;2023-02-13T01:24:40;101340.19;;;-2.02;64.18
45253;BME280;63171;50.520;30.486;2023-02-13T01:25:31;101342.72;;;-2.06;64.11
45253;BME280;63171;50.520;30.486;2023-02-13T01:26:22;101341.00;;;-2.06;64.15
45253;BME280;63171;50.520;30.486;2023-02-13T01:27:13;101338.56;;;-1.97;64.26
45253;BME280;63171;50.520;30.486;2023-02-13T01:28:03;101339.41;;;-1.99;64.45
45253;BME280;63171;50.520;30.486;2023-02-13T01:28:53;101336.06;;;-1.91;64.49
45253;BME280;63171;50.520;30.486;2023-02-13T01:29:46;101348.19;;;-1.81;64.50
45253;BME280;63171;50.520;30.486;2023-02-13T01:30:35;101342.28;;;-1.73;64.67
45253;BME280;63171;50.520;30.486;2023-02-13T01:31:26;101340.56;;;-1.73;64.63
45253;BME280;63171;50.520;30.486;2023-02-13T01:32:16;101339.66;;;-1.76;64.73
45253;BME280;63171;50.520;30.486;2023-02-13T01:33:09;101345.59;;;-1.82;64.66
45253;BME280;63171;50.520;30.486;2023-02-13T01:34:00;101330.22;;;-1.79;64.72
45253;BME280;63171;50.520;30.486;2023-02-13T01:34:50;101337.69;;;-1.99;64.58
45253;BME280;63171;50.520;30.486;2023-02-13T01:35:41;101345.50;;;-1.90;64.77
45253;BME280;63171;50.520;30.486;2023-02-13T01:36:32;101342.00;;;-1.95;64.64
45253;BME280;63171;50.520;30.486;2023-02-13T01:37:23;101345.31;;;-2.03;64.79
45253;BME280;63171;50.520;30.486;2023-02-13T01:38:12;101343.59;;;-2.03;64.68
45253;BME280;63171;50.520;30.486;2023-02-13T01:39:03;101334.44;;;-1.86;64.87
45253;BME280;63171;50.520;30.486;2023-02-13T01:39:54;101345.63;;;-1.79;65.18
45253;BME280;63171;50.520;30.486;2023-02-13T01:40:45;101341.34;;;-1.79;65.30
45253;BME280;63171;50.520;30.486;2023-02-13T01:41:36;101334.50;;;-1.78;65.28
45253;BME280;63171;50.520;30.486;2023-02-13T01:42:29;101337.03;;;-1.81;65.40
45253;BME280;63171;50.520;30.486;2023-02-13T01:43:20;101343.72;;;-1.94;65.02
45253;BME280;63171;50.520;30.486;2023-02-13T01:44:47;101336.06;;;-1.89;65.01
45253;BME280;63171;50.520;30.486;2023-02-13T01:45:39;101337.78;;;-1.90;65.39
45253;BME280;63171;50.520;30.486;2023-02-13T01:46:32;101336.88;;;-1.96;65.29
45253;BME280;63171;50.520;30.486;2023-02-13T01:47:29;101341.22;;;-1.89;65.41
45253;BME280;63171;50.520;30.486;2023-02-13T01:48:29;101327.63;;;-1.81;65.57
45253;BME280;63171;50.520;30.486;2023-02-13T01:49:22;101327.63;;;-1.81;65.60
45253;BME280;63171;50.520;30.486;2023-02-13T01:50:19;101329.22;;;-1.89;65.71
45253;BME280;63171;50.520;30.486;2023-02-13T01:51:13;101329.41;;;-1.75;65.84
45253;BME280;63171;50.520;30.486;2023-02-13T01:52:06;101331.97;;;-1.75;65.77
45253;BME280;63171;50.520;30.486;2023-02-13T01:53:01;101326.81;;;-1.78;65.92
45253;BME280;63171;50.520;30.486;2023-02-13T01:53:57;101325.94;;;-1.80;65.75
45253;BME280;63171;50.520;30.486;2023-02-13T01:54:48;101329.25;;;-1.87;65.69
45253;BME280;63171;50.520;30.486;2023-02-13T01:55:44;101325.72;;;-1.97;65.64
45253;BME280;63171;50.520;30.486;2023-02-13T01:56:37;101322.38;;;-1.90;65.85
45253;BME280;63171;50.520;30.486;2023-02-13T01:57:32;101323.13;;;-2.00;65.81
45253;BME280;63171;50.520;30.486;2023-02-13T01:58:26;101320.47;;;-2.08;65.88
45253;BME280;63171;50.520;30.486;2023-02-13T01:59:19;101332.56;;;-1.97;65.96
45253;BME280;63171;50.520;30.486;2023-02-13T02:00:13;101323.06;;;-2.03;65.76
45253;BME280;63171;50.520;30.486;2023-02-13T02:01:09;101313.75;;;-1.96;66.05
45253;BME280;63171;50.520;30.486;2023-02-13T02:02:01;101318.03;;;-1.98;66.33
45253;BME280;63171;50.520;30.486;2023-02-13T02:02:54;101317.25;;;-1.90;66.21
45253;BME280;63171;50.520;30.486;2023-02-13T02:03:51;101316.34;;;-1.93;66.10
45253;BME280;63171;50.520;30.486;2023-02-13T02:04:46;101318.06;;;-1.92;66.35
45253;BME280;63171;50.520;30.486;2023-02-13T02:05:42;101314.69;;;-1.90;66.57
45253;BME280;63171;50.520;30.486;2023-02-13T02:06:35;101316.25;;;-2.01;66.54
45253;BME280;63171;50.520;30.486;2023-02-13T02:07:28;101308.53;;;-2.02;66.47
45253;BME280;63171;50.520;30.486;2023-02-13T02:08:23;101314.53;;;-2.02;66.74
45253;BME280;63171;50.520;30.486;2023-02-13T02:09:21;101306.94;;;-1.94;66.87
45253;BME280;63171;50.520;30.486;2023-02-13T02:10:15;101309.41;;;-2.00;66.70
45253;BME280;63171;50.520;30.486;2023-02-13T02:11:12;101305.13;;;-2.01;66.85
45253;BME280;63171;50.520;30.486;2023-02-13T02:12:07;101307.78;;;-1.94;67.15
45253;BME280;63171;50.520;30.486;2023-02-13T02:13:10;101310.34;;;-1.97;67.01
45253;BME280;63171;50.520;30.486;2023-02-13T02:14:02;101301.78;;;-1.97;67.01
45253;BME280;63171;50.520;30.486;2023-02-13T02:14:58;101306.97;;;-1.91;67.22
45253;BME280;63171;50.520;30.486;2023-02-13T02:15:52;101306.88;;;-1.99;67.43
45253;BME280;63171;50.520;30.486;2023-02-13T02:16:43;101303.34;;;-2.07;67.17
45253;BME280;63171;50.520;30.486;2023-02-13T02:17:33;101299.13;;;-2.02;67.51
45253;BME280;63171;50.520;30.486;2023-02-13T02:18:24;101303.47;;;-1.99;67.31
45253;BME280;63171;50.520;30.486;2023-02-13T02:19:30;101298.38;;;-1.95;67.68
45253;BME280;63171;50.520;30.486;2023-02-13T02:20:39;101304.34;;;-1.97;68.00
45253;BME280;63171;50.520;30.486;2023-02-13T02:21:48;101304.34;;;-1.97;67.62
45253;BME280;63171;50.520;30.486;2023-02-13T02:23:14;101306.97;;;-1.90;68.03
45253;BME280;63171;50.520;30.486;2023-02-13T02:25:51;101297.53;;;-1.92;68.31
45253;BME280;63171;50.520;30.486;2023-02-13T02:27:05;101296.69;;;-1.93;68.18
45253;BME280;63171;50.520;30.486;2023-02-13T02:28:29;101288.06;;;-1.99;68.20
45253;BME280;63171;50.520;30.486;2023-02-13T02:30:02;101290.72;;;-1.90;68.62
45253;BME280;63171;50.520;30.486;2023-02-13T02:31:22;101294.19;;;-1.87;68.56
45253;BME280;63171;50.520;30.486;2023-02-13T02:33:44;101296.66;;;-1.96;68.79
45253;BME280;63171;50.520;30.486;2023-02-13T02:34:48;101299.19;;;-1.97;68.89
45253;BME280;63171;50.520;30.486;2023-02-13T02:35:46;101295.81;;;-1.93;68.93
45253;BME280;63171;50.520;30.486;2023-02-13T02:36:57;101299.38;;;-1.82;69.05
45253;BME280;63171;50.520;30.486;2023-02-13T02:38:07;101294.25;;;-1.81;69.14
45253;BME280;63171;50.520;30.486;2023-02-13T02:39:07;101293.38;;;-1.83;69.38
45253;BME280;63171;50.520;30.486;2023-02-13T02:40:11;101291.63;;;-1.87;69.20
45253;BME280;63171;50.520;30.486;2023-02-13T02:41:08;101286.44;;;-1.88;69.27
45253;BME280;63171;50.520;30.486;2023-02-13T02:42:28;101298.50;;;-1.84;69.61
45253;BME280;63171;50.520;30.486;2023-02-13T02:43:29;101289.13;;;-1.79;69.74
45253;BME280;63171;50.520;30.486;2023-02-13T02:44:31;101289.13;;;-1.79;69.74
45253;BME280;63171;50.520;30.486;2023-02-13T02:45:26;101290.03;;;-1.74;69.70
45253;BME280;63171;50.520;30.486;2023-02-13T02:46:24;101297.69;;;-1.79;69.82
45253;BME280;63171;50.520;30.486;2023-02-13T02:47:20;101286.66;;;-1.73;70.01
45253;BME280;63171;50.520;30.486;2023-02-13T02:48:39;101291.66;;;-1.84;70.12
45253;BME280;63171;50.520;30.486;2023-02-13T02:50:20;101292.50;;;-1.83;70.03
45253;BME280;63171;50.520;30.486;2023-02-13T02:51:20;101298.44;;;-1.89;70.01
45253;BME280;63171;50.520;30.486;2023-02-13T02:52:17;101289.81;;;-1.94;70.23
45253;BME280;63171;50.520;30.486;2023-02-13T02:53:21;101295.00;;;-1.89;70.09
45253;BME280;63171;50.520;30.486;2023-02-13T02:54:16;101290.78;;;-1.84;70.21
45253;BME280;63171;50.520;30.486;2023-02-13T02:55:36;101297.69;;;-1.79;70.62
45253;BME280;63171;50.520;30.486;2023-02-13T02:56:34;101296.78;;;-1.85;70.52
45253;BME280;63171;50.520;30.486;2023-02-13T02:57:29;101293.28;;;-1.90;70.64
45253;BME280;63171;50.520;30.486;2023-02-13T02:58:45;101297.66;;;-1.82;70.67
45253;BME280;63171;50.520;30.486;2023-02-13T02:59:56;101293.38;;;-1.83;70.81
45253;BME280;63171;50.520;30.486;2023-02-13T03:01:10;101298.53;;;-1.81;70.92
45253;BME280;63171;50.520;30.486;2023-02-13T03:02:21;101299.50;;;-1.71;71.07
45253;BME280;63171;50.520;30.486;2023-02-13T03:03:30;101301.13;;;-1.78;71.17
45253;BME280;63171;50.520;30.486;2023-02-13T03:04:43;101297.00;;;-1.64;71.55
45253;BME280;63171;50.520;30.486;2023-02-13T03:05:54;101294.50;;;-1.58;71.19
45253;BME280;63171;50.520;30.486;2023-02-13T03:07:03;101295.22;;;-1.69;71.18
45253;BME280;63171;50.520;30.486;2023-02-13T03:07:54;101296.94;;;-1.70;71.47
45253;BME280;63171;50.520;30.486;2023-02-13T03:08:52;101291.88;;;-1.62;72.08
45253;BME280;63171;50.520;30.486;2023-02-13T03:10:03;101282.31;;;-1.75;71.40
45253;BME280;63171;50.520;30.486;2023-02-13T03:11:12;101286.50;;;-1.87;71.17
45253;BME280;63171;50.520;30.486;2023-02-13T03:12:38;101282.25;;;-1.82;71.43
45253;BME280;63171;50.520;30.486;2023-02-13T03:13:55;101282.88;;;-2.02;71.60
45253;BME280;63171;50.520;30.486;2023-02-13T03:14:48;101277.81;;;-1.98;71.66
45253;BME280;63171;50.520;30.486;2023-02-13T03:15:39;101280.44;;;-1.90;71.71
45253;BME280;63171;50.520;30.486;2023-02-13T03:16:45;101277.00;;;-1.92;71.78
45253;BME280;63171;50.520;30.486;2023-02-13T03:17:55;101274.44;;;-1.92;71.97
45253;BME280;63171;50.520;30.486;2023-02-13T03:19:12;101284.78;;;-1.86;71.98
45253;BME280;63171;50.520;30.486;2023-02-13T03:20:32;101282.09;;;-1.95;71.90
45253;BME280;63171;50.520;30.486;2023-02-13T03:21:46;101281.28;;;-1.91;72.12
45253;BME280;63171;50.520;30.486;2023-02-13T03:23:02;101281.22;;;-1.99;72.06
45253;BME280;63171;50.520;30.486;2023-02-13T03:23:59;101284.69;;;-1.94;72.05
45253;BME280;63171;50.520;30.486;2023-02-13T03:24:58;101281.38;;;-1.87;72.34
45253;BME280;63171;50.520;30.486;2023-02-13T03:26:05;101269.44;;;-1.80;72.64
45253;BME280;63171;50.520;30.486;2023-02-13T03:27:04;101274.59;;;-1.79;72.69
45253;BME280;63171;50.520;30.486;2023-02-13T03:27:58;101278.91;;;-1.74;72.75
45253;BME280;63171;50.520;30.486;2023-02-13T03:29:13;101265.19;;;-1.76;72.89
45253;BME280;63171;50.520;30.486;2023-02-13T03:30:35;101264.28;;;-1.82;72.79
45253;BME280;63171;50.520;30.486;2023-02-13T03:31:33;101269.44;;;-1.79;72.86
45253;BME280;63171;50.520;30.486;2023-02-13T03:32:33;101265.28;;;-1.69;73.20
45253;BME280;63171;50.520;30.486;2023-02-13T03:33:39;101265.28;;;-1.66;73.22
45253;BME280;63171;50.520;30.486;2023-02-13T03:34:37;101267.97;;;-1.55;73.38
45253;BME280;63171;50.520;30.486;2023-02-13T03:35:48;101254.19;;;-1.65;73.26
45253;BME280;63171;50.520;30.486;2023-02-13T03:36:59;101258.34;;;-1.74;73.42
45253;BME280;63171;50.520;30.486;2023-02-13T03:38:14;101264.97;;;-1.98;72.97
45253;BME280;63171;50.520;30.486;2023-02-13T03:39:10;101263.19;;;-2.03;73.18
45253;BME280;63171;50.520;30.486;2023-02-13T03:40:04;101260.59;;;-2.06;73.32
45253;BME280;63171;50.520;30.486;2023-02-13T03:40:59;101262.38;;;-1.99;73.28
45253;BME280;63171;50.520;30.486;2023-02-13T03:42:10;101258.25;;;-1.85;73.43
45253;BME280;63171;50.520;30.486;2023-02-13T03:43:09;101246.44;;;-1.68;74.01
45253;BME280;63171;50.520;30.486;2023-02-13T03:44:09;101253.25;;;-1.73;73.70
45253;BME280;63171;50.520;30.486;2023-02-13T03:45:05;101251.56;;;-1.69;73.96
45253;BME280;63171;50.520;30.486;2023-02-13T03:46:17;101245.56;;;-1.70;73.86
45253;BME280;63171;50.520;30.486;2023-02-13T03:47:09;101252.44;;;-1.69;74.20
45253;BME280;63171;50.520;30.486;2023-02-13T03:48:03;101245.69;;;-1.59;74.13
45253;BME280;63171;50.520;30.486;2023-02-13T03:48:58;101245.72;;;-1.55;74.32
45253;BME280;63171;50.520;30.486;2023-02-13T03:50:10;101243.88;;;-1.66;74.20
45253;BME280;63171;50.520;30.486;2023-02-13T03:51:05;101246.53;;;-1.59;74.46
45253;BME280;63171;50.520;30.486;2023-02-13T03:52:01;101241.34;;;-1.62;74.21
45253;BME280;63171;50.520;30.486;2023-02-13T03:52:54;101232.66;;;-1.74;74.26
45253;BME280;63171;50.520;30.486;2023-02-13T03:53:50;101238.72;;;-1.69;74.47
45253;BME280;63171;50.520;30.486;2023-02-13T03:54:45;101241.34;;;-1.65;74.35
45253;BME280;63171;50.520;30.486;2023-02-13T03:55:57;101245.69;;;-1.58;74.71
45253;BME280;63171;50.520;30.486;2023-02-13T03:57:07;101237.91;;;-1.64;74.77
45253;BME280;63171;50.520;30.486;2023-02-13T03:58:19;101237.03;;;-1.69;74.65
45253;BME280;63171;50.520;30.486;2023-02-13T03:59:33;101243.13;;;-1.58;74.99
45253;BME280;63171;50.520;30.486;2023-02-13T04:00:27;101237.16;;;-1.52;75.14
45253;BME280;63171;50.520;30.486;2023-02-13T04:01:21;101236.41;;;-1.42;74.76
45253;BME280;63171;50.520;30.486;2023-02-13T04:02:19;101229.53;;;-1.44;75.19
45253;BME280;63171;50.520;30.486;2023-02-13T04:03:13;101233.84;;;-1.43;75.06
45253;BME280;63171;50.520;30.486;2023-02-13T04:04:09;101226.16;;;-1.36;75.33
45253;BME280;63171;50.520;30.486;2023-02-13T04:05:03;101229.59;;;-1.34;75.42
45253;BME280;63171;50.520;30.486;2023-02-13T04:06:01;101229.66;;;-1.28;75.70
45253;BME280;63171;50.520;30.486;2023-02-13T04:06:56;101225.41;;;-1.23;75.43
45253;BME280;63171;50.520;30.486;2023-02-13T04:07:48;101219.44;;;-1.22;75.66
45253;BME280;63171;50.520;30.486;2023-02-13T04:08:38;101222.81;;;-1.29;75.37
45253;BME280;63171;50.520;30.486;2023-02-13T04:09:30;101220.25;;;-1.27;75.16
45253;BME280;63171;50.520;30.486;2023-02-13T04:10:23;101220.16;;;-1.36;75.48
45253;BME280;63171;50.520;30.486;2023-02-13T04:11:21;101210.84;;;-1.25;75.56
45253;BME280;63171;50.520;30.486;2023-02-13T04:12:15;101220.28;;;-1.23;75.41
45253;BME280;63171;50.520;30.486;2023-02-13T04:13:13;101214.34;;;-1.18;75.66
45253;BME280;63171;50.520;30.486;2023-02-13T04:14:08;101216.03;;;-1.19;75.50
45253;BME280;63171;50.520;30.486;2023-02-13T04:15:07;101212.56;;;-1.21;75.40
45253;BME280;63171;50.520;30.486;2023-02-13T04:16:02;101210.91;;;-1.17;75.78
45253;BME280;63171;50.520;30.486;2023-02-13T04:17:01;101213.41;;;-1.24;75.76
45253;BME280;63171;50.520;30.486;2023-02-13T04:17:57;101207.38;;;-1.30;75.75
45253;BME280;63171;50.520;30.486;2023-02-13T04:18:52;101210.75;;;-1.36;75.70
45253;BME280;63171;50.520;30.486;2023-02-13T04:19:42;101215.09;;;-1.33;75.65
45253;BME280;63171;50.520;30.486;2023-02-13T04:20:33;101205.66;;;-1.33;75.98
45253;BME280;63171;50.520;30.486;2023-02-13T04:21:23;101207.41;;;-1.24;75.79
45253;BME280;63171;50.520;30.486;2023-02-13T04:22:14;101215.22;;;-1.13;75.76
45253;BME280;63171;50.520;30.486;2023-02-13T04:23:07;101216.13;;;-1.07;75.85
45253;BME280;63171;50.520;30.486;2023-02-13T04:23:57;101217.00;;;-1.03;76.12
45253;BME280;63171;50.520;30.486;2023-02-13T04:24:47;101216.94;;;-1.08;75.91
45253;BME280;63171;50.520;30.486;2023-02-13T04:25:39;101216.06;;;-1.13;75.75
45253;BME280;63171;50.520;30.486;2023-02-13T04:26:33;101222.09;;;-1.08;76.03
45253;BME280;63171;50.520;30.486;2023-02-13T04:27:24;101214.34;;;-1.15;75.75
45253;BME280;63171;50.520;30.486;2023-02-13T04:28:17;101215.22;;;-1.10;75.81
45253;BME280;63171;50.520;30.486;2023-02-13T04:29:07;101217.03;;;-1.00;76.39
45253;BME280;63171;50.520;30.486;2023-02-13T04:29:57;101210.16;;;-1.01;76.24
45253;BME280;63171;50.520;30.486;2023-02-13T04:30:47;101219.66;;;-0.88;76.09
45253;BME280;63171;50.520;30.486;2023-02-13T04:31:38;101202.47;;;-0.97;76.17
45253;BME280;63171;50.520;30.486;2023-02-13T04:32:28;101206.75;;;-0.94;76.02
45253;BME280;63171;50.520;30.486;2023-02-13T04:33:18;101203.31;;;-0.95;75.98
45253;BME280;63171;50.520;30.486;2023-02-13T04:34:08;101198.19;;;-0.95;76.29
45253;BME280;63171;50.520;30.486;2023-02-13T04:34:58;101201.66;;;-0.90;75.93
45253;BME280;63171;50.520;30.486;2023-02-13T04:35:49;101193.97;;;-0.86;76.43
45253;BME280;63171;50.520;30.486;2023-02-13T04:36:39;101197.38;;;-0.87;76.31
45253;BME280;63171;50.520;30.486;2023-02-13T04:37:31;101193.97;;;-0.85;75.89
45253;BME280;63171;50.520;30.486;2023-02-13T04:38:21;101200.84;;;-0.81;76.12
45253;BME280;63171;50.520;30.486;2023-02-13T04:39:12;101199.97;;;-0.84;76.12
45253;BME280;63171;50.520;30.486;2023-02-13T04:40:03;101200.84;;;-0.81;76.46
45253;BME280;63171;50.520;30.486;2023-02-13T04:40:52;101197.38;;;-0.86;76.16
45253;BME280;63171;50.520;30.486;2023-02-13T04:41:43;101205.94;;;-0.93;75.98
45253;BME280;63171;50.520;30.486;2023-02-13T04:42:33;101207.63;;;-0.95;75.94
45253;BME280;63171;50.520;30.486;2023-02-13T04:43:24;101202.53;;;-0.84;76.36
45253;BME280;63171;50.520;30.486;2023-02-13T04:44:14;101207.72;;;-0.78;76.13
45253;BME280;63171;50.520;30.486;2023-02-13T04:45:05;101208.59;;;-0.75;76.07
45253;BME280;63171;50.520;30.486;2023-02-13T04:45:54;101206.81;;;-0.85;76.10
45253;BME280;63171;50.520;30.486;2023-02-13T04:46:45;101203.41;;;-0.84;76.21
45253;BME280;63171;50.520;30.486;2023-02-13T04:47:35;101202.44;;;-1.04;76.06
45253;BME280;63171;50.520;30.486;2023-02-13T04:48:26;101203.38;;;-0.93;76.27
45253;BME280;63171;50.520;30.486;2023-02-13T04:49:15;101202.59;;;-0.80;76.05
45253;BME280;63171;50.520;30.486;2023-02-13T04:50:06;101200.00;;;-0.80;76.22
45253;BME280;63171;50.520;30.486;2023-02-13T04:50:56;101202.59;;;-0.72;76.35
45253;BME280;63171;50.520;30.486;2023-02-13T04:51:47;101200.88;;;-0.73;76.12
45253;BME280;63171;50.520;30.486;2023-02-13T04:52:38;101206.06;;;-0.69;76.07
45253;BME280;63171;50.520;30.486;2023-02-13T04:53:29;101200.91;;;-0.70;76.28